createdAt,value
2022-10-11T00:01:04.850Z,101063.59
2022-10-11T00:03:33.240Z,101064.69
2022-10-11T00:06:04.194Z,101057.78
2022-10-11T00:08:33.851Z,101062.34
2022-10-11T00:11:05.056Z,101056.28
2022-10-11T00:13:34.173Z,101064.78
2022-10-11T00:16:02.826Z,101062.44
2022-10-11T00:18:34.280Z,101065.63
2022-10-11T00:21:07.908Z,101061.44
2022-10-11T00:23:36.805Z,101056.28
2022-10-11T00:26:08.277Z,101060.19
2022-10-11T00:28:38.682Z,101054.38
2022-10-11T00:31:16.764Z,101051.09
2022-10-11T00:33:45.189Z,101056.72
2022-10-11T00:36:18.493Z,101062.34
2022-10-11T00:38:47.435Z,101058.91
2022-10-11T00:41:17.163Z,101053.69
2022-10-11T00:43:46.151Z,101056.53
2022-10-11T00:46:20.511Z,101054.91
2022-10-11T00:48:54.961Z,101055.38
2022-10-11T00:51:35.727Z,101060.16
2022-10-11T00:54:05.950Z,101065.91
2022-10-11T00:56:41.203Z,101058.50
2022-10-11T00:59:20.236Z,101067.19
2022-10-11T01:01:48.757Z,101062.38
2022-10-11T01:04:17.040Z,101059.28
2022-10-11T01:06:46.484Z,101072.25
2022-10-11T01:09:15.745Z,101069.38
2022-10-11T01:11:45.949Z,101068.22
2022-10-11T01:14:40.251Z,101069.72
2022-10-11T01:17:17.332Z,101066.94
2022-10-11T01:20:17.061Z,101071.72
2022-10-11T01:23:09.691Z,101070.78
2022-10-11T01:26:00.961Z,101082.94
2022-10-11T01:29:04.560Z,101080.81
2022-10-11T01:31:44.725Z,101075.09
2022-10-11T01:34:22.640Z,101074.69
2022-10-11T01:37:14.476Z,101076.88
2022-10-11T01:39:49.891Z,101085.72
2022-10-11T01:42:19.953Z,101083.78
2022-10-11T01:44:51.096Z,101087.84
2022-10-11T01:47:24.587Z,101082.13
2022-10-11T01:50:01.840Z,101079.09
2022-10-11T01:52:35.110Z,101086.09
2022-10-11T01:55:21.686Z,101089.28
2022-10-11T01:58:12.401Z,101098.09
2022-10-11T02:00:59.085Z,101093.25
2022-10-11T02:03:52.216Z,101102.25
2022-10-11T02:07:01.835Z,101092.94
2022-10-11T02:09:48.241Z,101102.38
2022-10-11T02:12:42.150Z,101106.03
2022-10-11T02:15:14.009Z,101106.06
2022-10-11T02:17:50.454Z,101112.41
2022-10-11T02:20:23.102Z,101118.53
2022-10-11T02:22:57.325Z,101117.56
2022-10-11T02:25:30.956Z,101121.78
2022-10-11T02:28:03.055Z,101129.59
2022-10-11T02:30:33.261Z,101131.31
2022-10-11T02:33:06.511Z,101126.84
2022-10-11T02:35:42.965Z,101124.22
2022-10-11T02:38:28.049Z,101133.41
2022-10-11T02:41:07.231Z,101142.03
2022-10-11T02:43:42.595Z,101138.00
2022-10-11T02:46:12.507Z,101144.41
2022-10-11T02:48:41.041Z,101147.19
2022-10-11T02:51:14.857Z,101149.13
2022-10-11T02:53:43.275Z,101146.09
2022-10-11T02:56:11.909Z,101156.91
2022-10-11T02:58:40.233Z,101158.84
2022-10-11T03:01:08.615Z,101160.88
2022-10-11T03:03:37.035Z,101156.22
2022-10-11T03:06:06.043Z,101162.97
2022-10-11T03:08:34.798Z,101165.91
2022-10-11T03:11:03.119Z,101165.31
2022-10-11T03:13:31.510Z,101161.25
2022-10-11T03:16:03.796Z,101169.66
2022-10-11T03:18:32.784Z,101177.78
2022-10-11T03:21:01.168Z,101179.69
2022-10-11T03:23:29.524Z,101169.97
2022-10-11T03:25:57.842Z,101179.94
2022-10-11T03:28:26.177Z,101181.84
2022-10-11T03:30:57.350Z,101178.53
2022-10-11T03:33:25.680Z,101184.25
2022-10-11T03:35:54.129Z,101189.78
2022-10-11T03:38:23.606Z,101198.00
2022-10-11T03:40:51.979Z,101190.91
2022-10-11T03:43:20.265Z,101198.06
2022-10-11T03:45:48.565Z,101200.13
2022-10-11T03:48:16.921Z,101197.53
2022-10-11T03:50:45.200Z,101211.06
2022-10-11T03:53:13.660Z,101205.94
2022-10-11T03:55:43.046Z,101210.69
2022-10-11T03:58:11.595Z,101209.06
2022-10-11T04:00:41.244Z,101212.00
2022-10-11T04:03:09.486Z,101213.00
2022-10-11T04:05:38.205Z,101208.69
2022-10-11T04:08:11.184Z,101210.75
2022-10-11T04:10:41.169Z,101211.13
2022-10-11T04:13:12.106Z,101222.25
2022-10-11T04:15:42.088Z,101220.59
2022-10-11T04:18:11.154Z,101216.34
2022-10-11T04:20:40.075Z,101210.34
2022-10-11T04:23:08.400Z,101216.66
2022-10-11T04:25:38.940Z,101220.44
2022-10-11T04:28:09.057Z,101216.09
2022-10-11T04:30:37.616Z,101223.34
2022-10-11T04:33:06.398Z,101223.50
2022-10-11T04:35:35.096Z,101226.41
2022-10-11T04:38:04.170Z,101230.34
2022-10-11T04:40:32.671Z,101221.97
2022-10-11T04:43:01.329Z,101220.47
2022-10-11T04:45:29.658Z,101222.22
2022-10-11T04:47:57.922Z,101221.50
2022-10-11T04:50:26.273Z,101215.34
2022-10-11T04:52:54.631Z,101221.66
2022-10-11T04:55:23.046Z,101226.13
2022-10-11T04:57:51.437Z,101229.78
2022-10-11T05:00:19.860Z,101229.88
2022-10-11T05:02:48.079Z,101230.97
2022-10-11T05:05:18.479Z,101224.09
2022-10-11T05:07:46.810Z,101230.53
2022-10-11T05:10:15.558Z,101230.72
2022-10-11T05:12:43.871Z,101233.53
2022-10-11T05:15:12.215Z,101238.22
2022-10-11T05:17:40.555Z,101241.97
2022-10-11T05:20:09.445Z,101241.19
2022-10-11T05:22:37.790Z,101244.16
2022-10-11T05:25:06.594Z,101243.38
2022-10-11T05:27:34.823Z,101239.00
2022-10-11T05:30:03.270Z,101240.81
2022-10-11T05:32:31.726Z,101245.44
2022-10-11T05:35:00.021Z,101244.78
2022-10-11T05:37:28.310Z,101248.56
2022-10-11T05:39:56.710Z,101251.47
2022-10-11T05:42:25.032Z,101247.97
2022-10-11T05:44:53.281Z,101250.63
2022-10-11T05:47:21.511Z,101250.81
2022-10-11T05:49:49.796Z,101246.53
2022-10-11T05:52:22.480Z,101258.13
2022-10-11T05:54:51.772Z,101251.22
2022-10-11T05:57:20.080Z,101246.94
2022-10-11T05:59:48.300Z,101251.56
2022-10-11T06:02:16.556Z,101253.50
2022-10-11T06:04:44.779Z,101251.75
2022-10-11T06:07:13.495Z,101250.97
2022-10-11T06:09:41.735Z,101246.69
2022-10-11T06:12:12.447Z,101249.56
2022-10-11T06:14:40.718Z,101249.75
2022-10-11T06:17:09.257Z,101247.28
2022-10-11T06:19:37.962Z,101250.94
2022-10-11T06:22:06.244Z,101241.31
2022-10-11T06:24:34.481Z,101240.66
2022-10-11T06:27:02.750Z,101239.97
2022-10-11T06:29:31.110Z,101233.97
2022-10-11T06:31:59.509Z,101233.31
2022-10-11T06:34:28.050Z,101238.78
2022-10-11T06:36:56.319Z,101232.72
2022-10-11T06:39:24.691Z,101232.03
2022-10-11T06:41:53.169Z,101241.16
2022-10-11T06:44:21.485Z,101235.16
2022-10-11T06:46:49.855Z,101238.91
2022-10-11T06:49:23.075Z,101239.97
2022-10-11T06:51:52.547Z,101233.00
2022-10-11T06:54:21.048Z,101226.84
2022-10-11T06:56:49.524Z,101229.59
2022-10-11T06:59:17.990Z,101227.97
2022-10-11T07:01:46.325Z,101239.66
2022-10-11T07:04:14.648Z,101237.19
2022-10-11T07:06:43.702Z,101236.31
2022-10-11T07:09:12.079Z,101228.50
2022-10-11T07:11:40.465Z,101237.50
2022-10-11T07:14:09.115Z,101225.94
2022-10-11T07:16:38.134Z,101237.69
2022-10-11T07:19:07.957Z,101230.59
2022-10-11T07:21:36.789Z,101232.44
2022-10-11T07:24:05.456Z,101232.53
2022-10-11T07:26:38.520Z,101231.72
2022-10-11T07:29:09.802Z,101225.69
2022-10-11T07:31:40.882Z,101239.13
2022-10-11T07:34:09.517Z,101233.00
2022-10-11T07:36:38.333Z,101225.91
2022-10-11T07:39:07.920Z,101231.38
2022-10-11T07:41:39.735Z,101225.28
2022-10-11T07:44:11.862Z,101224.50
2022-10-11T07:46:40.217Z,101225.38
2022-10-11T07:49:08.560Z,101217.41
2022-10-11T07:51:37.178Z,101220.22
2022-10-11T07:54:07.440Z,101220.31
2022-10-11T07:56:36.231Z,101227.56
2022-10-11T07:59:05.041Z,101220.59
2022-10-11T08:01:34.452Z,101215.41
2022-10-11T08:04:02.910Z,101219.13
2022-10-11T08:06:33.520Z,101218.28
2022-10-11T08:09:02.799Z,101224.56
2022-10-11T08:11:36.830Z,101227.38
2022-10-11T08:14:09.837Z,101222.22
2022-10-11T08:16:42.000Z,101225.91
2022-10-11T08:19:12.353Z,101224.22
2022-10-11T08:21:40.721Z,101226.88
2022-10-11T08:24:09.674Z,101231.34
2022-10-11T08:26:38.001Z,101228.81
2022-10-11T08:29:07.121Z,101225.41
2022-10-11T08:31:36.247Z,101228.06
2022-10-11T08:34:04.880Z,101221.97
2022-10-11T08:36:33.837Z,101219.47
2022-10-11T08:39:02.962Z,101223.06
2022-10-11T08:42:08.385Z,101223.09
2022-10-11T08:45:10.705Z,101220.41
2022-10-11T08:47:46.479Z,101226.69
2022-10-11T08:50:23.520Z,101226.53
2022-10-11T08:53:09.039Z,101229.97
2022-10-11T08:55:51.924Z,101233.25
2022-10-11T08:58:53.151Z,101241.94
2022-10-11T09:01:27.288Z,101250.69
2022-10-11T09:03:56.849Z,101248.69
2022-10-11T09:06:48.563Z,101241.31
2022-10-11T09:09:44.097Z,101239.25
2022-10-11T09:12:33.477Z,101235.38
2022-10-11T09:15:39.748Z,101239.56
2022-10-11T09:18:32.165Z,101242.06
2022-10-11T09:21:21.990Z,101241.91
2022-10-11T09:24:22.610Z,101247.03
2022-10-11T09:26:50.800Z,101251.34
2022-10-11T09:29:37.290Z,101254.56
2022-10-11T09:32:17.010Z,101254.25
2022-10-11T09:34:45.517Z,101254.94
2022-10-11T09:37:55.087Z,101251.13
2022-10-11T09:40:45.688Z,101249.28
2022-10-11T09:43:14.648Z,101251.97
2022-10-11T09:45:49.555Z,101249.22
2022-10-11T09:48:27.599Z,101251.81
2022-10-11T09:51:11.331Z,101254.41
2022-10-11T09:54:03.715Z,101252.56
2022-10-11T09:56:34.804Z,101257.03
2022-10-11T09:59:21.355Z,101256.09
2022-10-11T10:01:51.980Z,101258.78
2022-10-11T10:04:20.879Z,101250.66
2022-10-11T10:06:49.206Z,101247.03
2022-10-11T10:09:31.119Z,101239.78
2022-10-11T10:11:59.757Z,101235.16
2022-10-11T10:14:32.158Z,101233.31
2022-10-11T10:17:06.834Z,101237.63
2022-10-11T10:19:55.454Z,101241.13
2022-10-11T10:22:31.279Z,101234.84
2022-10-11T10:25:03.165Z,101239.25
2022-10-11T10:27:33.360Z,101240.09
2022-10-11T10:30:04.030Z,101237.31
2022-10-11T10:33:01.674Z,101224.91
2022-10-11T10:35:31.821Z,101225.69
2022-10-11T10:38:08.395Z,101229.28
2022-10-11T10:40:51.284Z,101225.75
2022-10-11T10:43:25.987Z,101224.81
2022-10-11T10:46:19.750Z,101226.63
2022-10-11T10:52:20.992Z,101213.34
2022-10-11T10:55:24.362Z,101210.59
2022-10-11T10:58:18.811Z,101209.66
2022-10-11T11:00:50.110Z,101208.78
2022-10-11T11:03:28.451Z,101211.38
2022-10-11T11:06:09.010Z,101215.94
2022-10-11T11:09:08.080Z,101215.06
2022-10-11T11:11:54.165Z,101215.16
2022-10-11T11:14:47.760Z,101215.06
2022-10-11T11:17:44.239Z,101217.75
2022-10-11T11:20:21.048Z,101208.91
2022-10-11T11:23:24.397Z,101212.53
2022-10-11T11:26:20.559Z,101219.59
2022-10-11T11:29:01.359Z,101219.69
2022-10-11T11:31:48.239Z,101222.34
2022-10-11T11:34:22.961Z,101227.69
2022-10-11T11:37:03.443Z,101233.91
2022-10-11T11:39:34.000Z,101233.91
2022-10-11T11:42:21.999Z,101242.78
2022-10-11T11:44:53.370Z,101246.25
2022-10-11T11:47:47.711Z,101251.47
2022-10-11T11:50:24.199Z,101246.94
2022-10-11T11:53:08.880Z,101257.63
2022-10-11T11:55:56.988Z,101256.75
2022-10-11T11:58:44.400Z,101256.75
2022-10-11T12:01:59.141Z,101254.09
2022-10-11T12:04:33.199Z,101267.38
2022-10-11T12:07:26.369Z,101273.69
2022-10-11T12:10:16.078Z,101276.38
2022-10-11T12:12:44.566Z,101274.72
2022-10-11T12:15:26.162Z,101274.63
2022-10-11T12:17:57.193Z,101275.50
2022-10-11T12:20:33.679Z,101280.84
2022-10-11T12:23:20.240Z,101279.00
2022-10-11T12:26:26.760Z,101281.66
2022-10-11T12:29:20.741Z,101273.50
2022-10-11T12:31:52.115Z,101277.94
2022-10-11T12:34:42.641Z,101278.84
2022-10-11T12:37:23.440Z,101275.25
2022-10-11T12:39:59.767Z,101274.25
2022-10-11T12:42:38.314Z,101272.44
2022-10-11T12:45:15.602Z,101275.00
2022-10-11T12:47:52.560Z,101271.47
2022-10-11T12:50:41.443Z,101269.56
2022-10-11T12:53:24.299Z,101264.31
2022-10-11T12:56:08.943Z,101266.09
2022-10-11T12:58:42.486Z,101264.38
2022-10-11T13:01:20.656Z,101262.69
2022-10-11T13:04:13.837Z,101263.72
2022-10-11T13:06:55.816Z,101269.91
2022-10-11T13:09:27.124Z,101267.25
2022-10-11T13:12:02.629Z,101259.22
2022-10-11T13:14:36.333Z,101266.31
2022-10-11T13:17:05.014Z,101268.03
2022-10-11T13:19:36.215Z,101268.03
2022-10-11T13:22:16.400Z,101262.69
2022-10-11T13:24:51.919Z,101261.91
2022-10-11T13:27:24.243Z,101268.16
2022-10-11T13:29:58.031Z,101270.13
2022-10-11T13:32:28.885Z,101262.16
2022-10-11T13:35:01.845Z,101262.16
2022-10-11T13:37:32.276Z,101268.34
2022-10-11T13:40:00.663Z,101264.81
2022-10-11T13:42:33.796Z,101270.97
2022-10-11T13:45:02.802Z,101265.63
2022-10-11T13:47:33.153Z,101277.25
2022-10-11T13:50:16.556Z,101272.81
2022-10-11T13:53:10.776Z,101280.84
2022-10-11T13:55:58.411Z,101277.25
2022-10-11T13:58:33.490Z,101283.59
2022-10-11T14:01:18.346Z,101278.25
2022-10-11T14:03:50.960Z,101275.69
2022-10-11T14:06:19.438Z,101275.75
2022-10-11T14:08:52.720Z,101283.78
2022-10-11T14:11:38.482Z,101286.38
2022-10-11T14:14:31.279Z,101286.25
2022-10-11T14:17:21.030Z,101283.66
2022-10-11T14:20:11.615Z,101291.69
2022-10-11T14:22:40.403Z,101289.94
2022-10-11T14:25:08.848Z,101295.28
2022-10-11T14:27:38.646Z,101297.06
2022-10-11T14:30:31.847Z,101295.28
2022-10-11T14:33:02.590Z,101303.31
2022-10-11T14:35:33.488Z,101304.97
2022-10-11T14:38:02.001Z,101320.03
2022-10-11T14:40:32.569Z,101318.25
2022-10-11T14:43:00.935Z,101317.34
2022-10-11T14:45:29.204Z,101321.84
2022-10-11T14:47:57.641Z,101318.38
2022-10-11T14:50:43.568Z,101327.19
2022-10-11T14:53:13.532Z,101332.41
2022-10-11T14:55:42.681Z,101334.91
2022-10-11T14:58:14.967Z,101340.09
2022-10-11T15:00:44.530Z,101344.47
2022-10-11T15:03:13.204Z,101341.78
2022-10-11T15:05:41.678Z,101339.91
2022-10-11T15:08:10.150Z,101342.47
2022-10-11T15:10:41.528Z,101342.34
2022-10-11T15:13:13.040Z,101340.59
2022-10-11T15:15:42.521Z,101336.13
2022-10-11T15:18:17.655Z,101338.66
2022-10-11T15:20:47.607Z,101341.09
2022-10-11T15:23:16.108Z,101333.88
2022-10-11T15:25:44.511Z,101339.97
2022-10-11T15:28:38.539Z,101339.88
2022-10-11T15:31:06.975Z,101350.47
2022-10-11T15:33:35.283Z,101352.97
2022-10-11T15:36:03.921Z,101355.50
2022-10-11T15:38:32.715Z,101352.78
2022-10-11T15:41:01.675Z,101351.75
2022-10-11T15:43:29.961Z,101363.19
2022-10-11T15:45:59.296Z,101355.91
2022-10-11T15:48:28.398Z,101354.09
2022-10-11T15:50:57.570Z,101358.44
2022-10-11T15:53:32.080Z,101367.28
2022-10-11T15:56:01.938Z,101358.31
2022-10-11T15:58:36.545Z,101357.28
2022-10-11T16:01:10.676Z,101360.66
2022-10-11T16:03:39.160Z,101368.31
2022-10-11T16:06:08.491Z,101376.06
2022-10-11T16:08:37.947Z,101389.31
2022-10-11T16:11:08.005Z,101382.25
2022-10-11T16:13:36.874Z,101388.59
2022-10-11T16:16:10.246Z,101388.25
2022-10-11T16:18:39.308Z,101385.09
2022-10-11T16:21:16.385Z,101381.94
2022-10-11T16:23:44.671Z,101378.06
2022-10-11T16:26:15.065Z,101390.41
2022-10-11T16:28:43.736Z,101390.28
2022-10-11T16:31:17.641Z,101386.81
2022-10-11T16:33:49.089Z,101392.81
2022-10-11T16:36:41.414Z,101390.72
2022-10-11T16:39:15.707Z,101395.78
2022-10-11T16:41:45.097Z,101400.28
2022-10-11T16:44:18.475Z,101388.78
2022-10-11T16:46:50.797Z,101390.34
2022-10-11T16:49:23.389Z,101391.00
2022-10-11T16:51:56.507Z,101392.88
2022-10-11T16:54:24.851Z,101394.91
2022-10-11T16:56:56.235Z,101399.78
2022-10-11T16:59:27.336Z,101383.78
2022-10-11T17:01:56.190Z,101389.19
2022-10-11T17:04:24.935Z,101394.78
2022-10-11T17:06:55.279Z,101395.75
2022-10-11T17:09:23.712Z,101400.13
2022-10-11T17:11:56.650Z,101392.88
2022-10-11T17:14:24.880Z,101391.00
2022-10-11T17:16:56.236Z,101393.81
2022-10-11T17:19:24.560Z,101389.28
2022-10-11T17:21:53.040Z,101384.50
2022-10-11T17:24:21.360Z,101385.84
2022-10-11T17:26:49.831Z,101389.13
2022-10-11T17:29:18.290Z,101381.88
2022-10-11T17:31:49.173Z,101381.66
2022-10-11T17:34:18.320Z,101380.34
2022-10-11T17:36:46.555Z,101387.16
2022-10-11T17:39:18.314Z,101375.22
2022-10-11T17:41:47.445Z,101386.56
2022-10-11T17:44:18.747Z,101375.63
2022-10-11T17:46:50.100Z,101376.25
2022-10-11T17:49:18.769Z,101372.59
2022-10-11T17:51:47.037Z,101376.69
2022-10-11T17:54:15.371Z,101372.03
2022-10-11T17:56:43.789Z,101370.09
2022-10-11T17:59:17.992Z,101374.19
2022-10-11T18:01:46.322Z,101371.41
2022-10-11T18:04:17.331Z,101360.41
2022-10-11T18:06:47.483Z,101364.63
2022-10-11T18:09:18.358Z,101372.44
2022-10-11T18:11:47.784Z,101364.94
2022-10-11T18:14:16.560Z,101368.19
2022-10-11T18:16:46.670Z,101373.94
2022-10-11T18:19:15.280Z,101375.34
2022-10-11T18:21:43.650Z,101366.91
2022-10-11T18:24:16.849Z,101371.84
2022-10-11T18:26:46.451Z,101365.38
2022-10-11T18:29:15.054Z,101374.00
2022-10-11T18:31:43.371Z,101373.41
2022-10-11T18:34:13.902Z,101371.25
2022-10-11T18:36:44.715Z,101371.72
2022-10-11T18:39:15.596Z,101361.44
2022-10-11T18:41:45.301Z,101368.16
2022-10-11T18:44:15.898Z,101362.94
2022-10-11T18:46:45.140Z,101357.66
2022-10-11T18:49:14.442Z,101349.94
2022-10-11T18:51:43.444Z,101344.06
2022-10-11T18:54:16.706Z,101338.94
2022-10-11T18:56:48.445Z,101339.34
2022-10-11T18:59:16.841Z,101335.00
2022-10-11T19:01:46.085Z,101330.75
2022-10-11T19:04:18.750Z,101330.47
2022-10-11T19:06:49.960Z,101333.56
2022-10-11T19:09:23.599Z,101332.47
2022-10-11T19:11:54.162Z,101327.47
2022-10-11T19:14:26.686Z,101322.41
2022-10-11T19:16:55.965Z,101319.16
2022-10-11T19:19:27.485Z,101311.44
2022-10-11T19:21:58.214Z,101311.78
2022-10-11T19:24:29.676Z,101308.19
2022-10-11T19:27:02.604Z,101307.31
2022-10-11T19:29:32.688Z,101297.13
2022-10-11T19:32:04.529Z,101307.59
2022-10-11T19:34:33.685Z,101303.16
2022-10-11T19:37:02.165Z,101297.84
2022-10-11T19:39:30.645Z,101299.16
2022-10-11T19:41:58.965Z,101294.56
2022-10-11T19:44:27.284Z,101289.91
2022-10-11T19:46:55.598Z,101292.56
2022-10-11T19:49:25.950Z,101290.06
2022-10-11T19:51:56.238Z,101284.06
2022-10-11T19:54:24.679Z,101278.00
2022-10-11T19:56:53.440Z,101275.56
2022-10-11T19:59:22.008Z,101276.13
2022-10-11T20:01:53.132Z,101274.53
2022-10-11T20:07:11.547Z,101266.97
2022-10-11T20:09:39.920Z,101270.81
2022-10-11T20:12:08.534Z,101261.50
2022-10-11T20:14:37.004Z,101262.78
2022-10-11T20:17:05.365Z,101261.59
2022-10-11T20:19:33.800Z,101262.34
2022-10-11T20:22:02.994Z,101255.31
2022-10-11T20:24:34.078Z,101248.72
2022-10-11T20:27:05.060Z,101243.84
2022-10-11T20:29:33.316Z,101243.72
2022-10-11T20:32:01.735Z,101238.84
2022-10-11T20:34:30.160Z,101240.59
2022-10-11T20:36:58.747Z,101241.44
2022-10-11T20:39:27.149Z,101250.41
2022-10-11T20:41:55.782Z,101232.47
2022-10-11T20:44:24.105Z,101226.63
2022-10-11T20:46:52.390Z,101228.75
2022-10-11T20:49:20.837Z,101228.72
2022-10-11T20:51:49.615Z,101219.94
2022-10-11T20:54:18.325Z,101215.31
2022-10-11T20:56:46.566Z,101217.84
2022-10-11T20:59:14.910Z,101213.97
2022-10-11T21:01:43.438Z,101210.16
2022-10-11T21:04:18.985Z,101213.47
2022-10-11T21:06:48.887Z,101207.66
2022-10-11T21:09:17.666Z,101206.66
2022-10-11T21:11:46.014Z,101209.41
2022-10-11T21:14:14.540Z,101205.00
2022-10-11T21:16:42.943Z,101203.53
2022-10-11T21:19:15.105Z,101205.50
2022-10-11T21:21:44.616Z,101202.97
2022-10-11T21:24:14.725Z,101192.97
2022-10-11T21:26:43.005Z,101192.72
2022-10-11T21:29:11.410Z,101185.94
2022-10-11T21:31:41.686Z,101186.03
2022-10-11T21:34:10.085Z,101179.63
2022-10-11T21:36:38.414Z,101185.50
2022-10-11T21:39:06.725Z,101177.47
2022-10-11T21:41:35.110Z,101178.81
2022-10-11T21:44:03.555Z,101181.38
2022-10-11T21:47:01.148Z,101175.22
2022-10-11T21:49:21.694Z,101176.53
2022-10-11T21:51:50.609Z,101190.47
2022-10-11T21:54:19.430Z,101185.28
2022-10-11T21:56:48.399Z,101186.22
2022-10-11T21:59:16.875Z,101193.97
2022-10-11T22:01:45.699Z,101191.16
2022-10-11T22:04:14.484Z,101185.88
2022-10-11T22:06:42.807Z,101178.00
2022-10-11T22:09:11.269Z,101187.38
2022-10-11T22:11:40.079Z,101188.66
2022-10-11T22:14:08.510Z,101188.09
2022-10-11T22:16:36.918Z,101190.91
2022-10-11T22:19:05.355Z,101192.50
2022-10-11T22:21:33.795Z,101184.75
2022-10-11T22:24:02.160Z,101186.13
2022-10-11T22:26:32.393Z,101192.56
2022-10-11T22:29:01.364Z,101181.75
2022-10-11T22:31:30.807Z,101189.97
2022-10-11T22:34:01.233Z,101190.22
2022-10-11T22:36:31.440Z,101195.28
2022-10-11T22:38:59.905Z,101186.66
2022-10-11T22:41:28.550Z,101190.75
2022-10-11T22:43:56.891Z,101197.03
2022-10-11T22:46:25.199Z,101191.00
2022-10-11T22:48:53.529Z,101191.03
2022-10-11T22:51:24.405Z,101196.28
2022-10-11T22:53:52.728Z,101194.97
2022-10-11T22:56:21.048Z,101191.81
2022-10-11T22:58:49.365Z,101200.22
2022-10-11T23:01:17.845Z,101197.97
2022-10-11T23:03:50.195Z,101201.81
2022-10-11T23:06:18.986Z,101205.22
2022-10-11T23:08:47.279Z,101204.97
2022-10-11T23:11:15.597Z,101202.66
2022-10-11T23:13:43.871Z,101206.03
2022-10-11T23:16:13.819Z,101212.00
2022-10-11T23:18:43.119Z,101207.88
2022-10-11T23:21:12.139Z,101216.66
2022-10-11T23:23:40.672Z,101221.53
2022-10-11T23:26:13.179Z,101218.72
2022-10-11T23:28:43.172Z,101212.63
2022-10-11T23:31:14.070Z,101217.69
2022-10-11T23:33:42.432Z,101218.94
2022-10-11T23:36:22.955Z,101221.22
2022-10-11T23:38:56.397Z,101218.81
2022-10-11T23:41:27.909Z,101210.28
2022-10-11T23:43:56.399Z,101215.38
2022-10-11T23:46:24.991Z,101206.50
2022-10-11T23:48:53.253Z,101218.41
2022-10-11T23:51:21.645Z,101218.25
2022-10-11T23:53:50.030Z,101220.66
2022-10-11T23:56:18.343Z,101216.56
2022-10-11T23:58:46.919Z,101218.59
